Time;durP1;ratioP1;P1;durP2;ratioP2;P2;SDS_P1;SDS_P2;PMS_P1;PMS_P2;Temp;Humidity;BMP_temperature;BMP_pressure;BME280_temperature;BME280_humidity;BME280_pressure;Samples;Min_cycle;Max_cycle;Signal;HPM_P1;HPM_P2
2023/03/09 00:02:26;;;;;;;54.77;51.00;;;;;;;-141.22;100.00;65034.22;4962000;28;20444;-43
2023/03/09 00:04:55;;;;;;;56.77;53.37;;;;;;;-141.22;100.00;65034.22;4962060;28;20474;-43
2023/03/09 00:07:23;;;;;;;56.27;52.83;;;;;;;-141.22;100.00;65034.22;4962618;28;20436;-47
2023/03/09 00:09:51;;;;;;;54.80;51.57;;;;;;;-141.22;100.00;65034.22;4962551;28;21041;-44
2023/03/09 00:12:18;;;;;;;55.03;51.97;;;;;;;-141.22;100.00;65034.22;4962324;28;20499;-45
2023/03/09 00:14:46;;;;;;;56.60;53.20;;;;;;;-141.22;100.00;65034.22;4961834;28;20471;-44
2023/03/09 00:17:14;;;;;;;56.20;52.83;;;;;;;-141.22;100.00;65034.22;4962208;28;20442;-45
2023/03/09 00:19:41;;;;;;;55.87;52.67;;;;;;;-141.22;100.00;65034.22;4962420;28;20435;-44
2023/03/09 00:22:10;;;;;;;56.47;52.50;;;;;;;-141.22;100.00;65034.22;4962973;28;20969;-43
2023/03/09 00:24:45;;;;;;;52.30;49.30;;;;;;;-141.22;100.00;65034.22;4961307;28;20472;-43
2023/03/09 00:27:14;;;;;;;56.70;53.13;;;;;;;-141.22;100.00;65034.22;4962202;28;20420;-43
2023/03/09 00:29:42;;;;;;;56.03;52.40;;;;;;;-141.22;100.00;65034.22;4962448;28;20450;-46
2023/03/09 00:32:09;;;;;;;59.50;55.80;;;;;;;-141.22;100.00;65034.22;4960786;28;20858;-46
2023/03/09 00:34:37;;;;;;;55.57;52.27;;;;;;;-141.22;100.00;65034.22;4960685;28;20478;-46
2023/03/09 00:37:05;;;;;;;56.67;53.07;;;;;;;-141.22;100.00;65034.22;4961423;28;20933;-42
2023/03/09 00:39:34;;;;;;;59.03;55.43;;;;;;;-141.22;100.00;65034.22;4961415;28;20535;-43
2023/03/09 00:42:02;;;;;;;62.13;58.37;;;;;;;-141.22;100.00;65034.22;4960939;28;20519;-45
2023/03/09 00:44:29;;;;;;;60.90;57.20;;;;;;;-141.22;100.00;65034.22;4959816;28;20467;-43
2023/03/09 00:46:57;;;;;;;62.93;58.87;;;;;;;-141.22;100.00;65034.22;4961394;28;20443;-45
2023/03/09 00:49:25;;;;;;;59.50;56.27;;;;;;;-141.22;100.00;65034.22;4961658;28;20448;-46
2023/03/09 00:51:52;;;;;;;67.07;63.37;;;;;;;-141.22;100.00;65034.22;4959479;28;20435;-46
2023/03/09 00:54:20;;;;;;;61.77;57.67;;;;;;;-141.22;100.00;65034.22;4959468;28;20467;-44
2023/03/09 00:56:49;;;;;;;62.40;59.03;;;;;;;-141.22;100.00;65034.22;4960946;28;20783;-42
2023/03/09 00:59:17;;;;;;;64.23;60.53;;;;;;;-141.22;100.00;65034.22;4960929;28;20436;-43
2023/03/09 01:01:44;;;;;;;62.90;59.57;;;;;;;-141.22;100.00;65034.22;4960540;28;20462;-46
2023/03/09 01:04:12;;;;;;;65.93;62.57;;;;;;;-141.22;100.00;65034.22;4959940;28;20555;-43
2023/03/09 01:06:40;;;;;;;63.37;59.97;;;;;;;-141.22;100.00;65034.22;4960898;28;20446;-46
2023/03/09 01:09:09;;;;;;;62.03;58.77;;;;;;;-141.22;100.00;65034.22;4960396;28;20443;-42
2023/03/09 01:11:37;;;;;;;60.33;57.13;;;;;;;-141.22;100.00;65034.22;4960015;28;20440;-44
2023/03/09 01:14:06;;;;;;;59.93;56.63;;;;;;;-141.22;100.00;65034.22;4959714;28;20478;-44
2023/03/09 01:16:34;;;;;;;61.37;57.33;;;;;;;-141.22;100.00;65034.22;4960140;28;20444;-43
2023/03/09 01:19:01;;;;;;;57.67;54.50;;;;;;;-141.22;100.00;65034.22;4960827;28;20446;-43
2023/03/09 01:21:30;;;;;;;56.27;53.07;;;;;;;-141.22;100.00;65034.22;4960451;28;20438;-46
2023/03/09 01:23:57;;;;;;;61.40;58.13;;;;;;;-141.22;100.00;65034.22;4960128;28;20466;-44
2023/03/09 01:26:25;;;;;;;56.87;53.77;;;;;;;-141.22;100.00;65034.22;4960014;28;20436;-49
2023/03/09 01:28:53;;;;;;;56.00;52.77;;;;;;;-141.22;100.00;65034.22;4960524;28;20526;-44
2023/03/09 01:31:22;;;;;;;56.23;52.93;;;;;;;-141.22;100.00;65034.22;4960374;28;20440;-43
2023/03/09 01:33:49;;;;;;;57.13;54.07;;;;;;;-141.22;100.00;65034.22;4959681;28;20483;-48
2023/03/09 01:36:19;;;;;;;61.40;58.10;;;;;;;-141.22;100.00;65034.22;4959978;28;20438;-45
2023/03/09 01:38:48;;;;;;;57.37;54.23;;;;;;;-141.22;100.00;65034.22;4960395;28;20775;-43
2023/03/09 01:41:17;;;;;;;60.33;56.90;;;;;;;-141.22;100.00;65034.22;4959826;28;20770;-47
2023/03/09 01:43:45;;;;;;;61.20;57.80;;;;;;;-141.22;100.00;65034.22;4959616;28;20475;-47
2023/03/09 01:46:34;;;;;;;59.73;56.13;;;;;;;-141.22;100.00;65034.22;4960049;28;20431;-44
2023/03/09 01:49:10;;;;;;;62.33;59.23;;;;;;;-141.22;100.00;65034.22;4959768;28;20443;-43
2023/03/09 01:51:45;;;;;;;60.50;56.93;;;;;;;-141.22;100.00;65034.22;4959646;28;20435;-49
2023/03/09 01:54:20;;;;;;;65.23;61.73;;;;;;;-141.22;100.00;65034.22;4958704;28;20482;-45
2023/03/09 01:56:53;;;;;;;61.93;57.43;;;;;;;-141.22;100.00;65034.22;4959654;28;20427;-44
2023/03/09 01:59:24;;;;;;;63.40;59.90;;;;;;;-141.22;100.00;65034.22;4960116;28;20439;-44
2023/03/09 02:01:53;;;;;;;64.27;60.80;;;;;;;-141.22;100.00;65034.22;4960388;28;20455;-45
2023/03/09 02:04:27;;;;;;;70.10;66.63;;;;;;;-141.22;100.00;65034.22;4935147;28;20479;-45
2023/03/09 02:06:55;;;;;;;67.00;63.30;;;;;;;-141.22;100.00;65034.22;4960472;28;20427;-44
2023/03/09 02:09:28;;;;;;;67.90;64.10;;;;;;;-141.22;100.00;65034.22;4959597;28;20444;-45
2023/03/09 02:11:57;;;;;;;69.87;66.27;;;;;;;-141.22;100.00;65034.22;4959255;28;20431;-43
2023/03/09 02:14:26;;;;;;;66.07;62.43;;;;;;;-141.22;100.00;65034.22;4959006;28;21082;-44
2023/03/09 02:16:55;;;;;;;67.47;64.07;;;;;;;-141.22;100.00;65034.22;4959569;29;20497;-43
2023/03/09 02:19:54;;;;;;;67.13;63.43;;;;;;;-141.22;100.00;65034.22;4958962;28;20436;-45
2023/03/09 02:22:22;;;;;;;68.37;64.33;;;;;;;-141.22;100.00;65034.22;4958897;28;20798;-42
2023/03/09 02:25:05;;;;;;;70.20;66.00;;;;;;;-141.22;100.00;65034.22;4958649;28;20466;-44
2023/03/09 02:27:34;;;;;;;66.00;62.37;;;;;;;-141.22;100.00;65034.22;4959299;28;20436;-44
2023/03/09 02:30:02;;;;;;;64.10;60.33;;;;;;;-141.22;100.00;65034.22;4959135;28;20436;-44
2023/03/09 02:32:31;;;;;;;63.53;59.87;;;;;;;-141.22;100.00;65034.22;4959368;28;20440;-47
2023/03/09 02:34:59;;;;;;;59.97;56.57;;;;;;;-141.22;100.00;65034.22;4959013;28;20480;-45
2023/03/09 02:37:31;;;;;;;56.07;53.00;;;;;;;-141.22;100.00;65034.22;4959092;28;20435;-45
2023/03/09 02:40:04;;;;;;;57.53;54.33;;;;;;;-141.22;100.00;65034.22;4959702;28;20515;-46
2023/03/09 02:42:34;;;;;;;58.63;55.50;;;;;;;-141.22;100.00;65034.22;4958998;28;20463;-47
2023/03/09 02:45:02;;;;;;;56.13;52.90;;;;;;;-141.22;100.00;65034.22;4958410;28;20490;-45
2023/03/09 02:47:29;;;;;;;60.70;57.20;;;;;;;-141.22;100.00;65034.22;4958460;28;20490;-45
2023/03/09 02:49:57;;;;;;;66.47;62.77;;;;;;;-141.22;100.00;65034.22;4959851;28;20432;-42
2023/03/09 02:52:25;;;;;;;65.47;62.03;;;;;;;-141.22;100.00;65034.22;4959137;28;20472;-42
2023/03/09 02:54:52;;;;;;;71.30;67.07;;;;;;;-141.22;100.00;65034.22;4959242;28;20486;-47
2023/03/09 02:57:20;;;;;;;73.77;69.00;;;;;;;-141.22;100.00;65034.22;4958905;28;20431;-44
2023/03/09 02:59:49;;;;;;;67.00;63.10;;;;;;;-141.22;100.00;65034.22;4959079;28;20983;-42
2023/03/09 03:02:17;;;;;;;69.43;65.60;;;;;;;-141.22;100.00;65034.22;4958819;28;20441;-44
2023/03/09 03:04:45;;;;;;;68.33;64.73;;;;;;;-141.22;100.00;65034.22;4958971;28;20499;-44
2023/03/09 03:07:13;;;;;;;77.50;73.10;;;;;;;-141.22;100.00;65034.22;4959272;28;20476;-45
2023/03/09 03:09:41;;;;;;;68.07;64.30;;;;;;;-141.22;100.00;65034.22;4959140;28;20447;-45
2023/03/09 03:12:09;;;;;;;68.50;65.00;;;;;;;-141.22;100.00;65034.22;4958795;28;20453;-42
2023/03/09 03:14:36;;;;;;;68.87;64.97;;;;;;;-141.22;100.00;65034.22;4959713;28;20486;-44
2023/03/09 03:17:05;;;;;;;76.20;72.07;;;;;;;-141.22;100.00;65034.22;4962959;28;20436;-47
2023/03/09 03:19:33;;;;;;;72.63;68.53;;;;;;;-141.22;100.00;65034.22;4963104;28;20435;-45
2023/03/09 03:22:01;;;;;;;71.80;67.53;;;;;;;-141.22;100.00;65034.22;4961727;28;20427;-47
2023/03/09 03:24:29;;;;;;;72.53;68.77;;;;;;;-141.22;100.00;65034.22;4962307;28;20491;-44
2023/03/09 03:26:56;;;;;;;73.03;69.00;;;;;;;-141.22;100.00;65034.22;4962267;28;20435;-43
2023/03/09 03:29:24;;;;;;;70.73;66.37;;;;;;;-141.22;100.00;65034.22;4961725;28;20440;-42
2023/03/09 03:31:52;;;;;;;69.73;65.73;;;;;;;-141.22;100.00;65034.22;4962353;28;20440;-43
2023/03/09 03:34:21;;;;;;;65.50;61.93;;;;;;;-141.22;100.00;65034.22;4961871;28;20866;-44
2023/03/09 03:36:48;;;;;;;63.27;59.30;;;;;;;-141.22;100.00;65034.22;4962329;28;20442;-49
2023/03/09 03:39:16;;;;;;;66.77;62.90;;;;;;;-141.22;100.00;65034.22;4962382;28;20444;-46
2023/03/09 03:41:44;;;;;;;70.30;66.20;;;;;;;-141.22;100.00;65034.22;4962521;28;20838;-46
2023/03/09 03:44:12;;;;;;;64.93;61.30;;;;;;;-141.22;100.00;65034.22;4961764;28;20540;-42
2023/03/09 03:46:40;;;;;;;65.63;61.63;;;;;;;-141.22;100.00;65034.22;4961599;28;20438;-44
2023/03/09 03:49:07;;;;;;;63.63;59.70;;;;;;;-141.22;100.00;65034.22;4962343;28;20449;-47
2023/03/09 03:51:36;;;;;;;63.23;59.73;;;;;;;-141.22;100.00;65034.22;4962272;28;20446;-44
2023/03/09 03:54:04;;;;;;;62.80;59.10;;;;;;;-141.22;100.00;65034.22;4960892;28;20471;-42
2023/03/09 03:56:32;;;;;;;61.73;58.53;;;;;;;-141.22;100.00;65034.22;4961375;28;20434;-43
2023/03/09 03:59:00;;;;;;;64.90;61.00;;;;;;;-141.22;100.00;65034.22;4962587;28;20541;-42
2023/03/09 04:01:27;;;;;;;62.43;58.80;;;;;;;-141.22;100.00;65034.22;4961747;28;20444;-48
2023/03/09 04:03:55;;;;;;;59.97;56.87;;;;;;;-141.22;100.00;65034.22;4959243;28;20503;-46
2023/03/09 04:06:23;;;;;;;62.47;59.10;;;;;;;-141.22;100.00;65034.22;4961502;28;20443;-42
2023/03/09 04:08:52;;;;;;;61.53;58.13;;;;;;;-141.22;100.00;65034.22;4961774;28;20502;-44
2023/03/09 04:11:19;;;;;;;64.00;60.23;;;;;;;-141.22;100.00;65034.22;4962047;28;20802;-42
2023/03/09 04:13:48;;;;;;;61.57;58.07;;;;;;;-141.22;100.00;65034.22;4960939;28;20475;-45
2023/03/09 04:16:16;;;;;;;63.20;59.87;;;;;;;-141.22;100.00;65034.22;4962031;28;20432;-44
2023/03/09 04:18:44;;;;;;;62.63;59.30;;;;;;;-141.22;100.00;65034.22;4961819;28;20431;-43
2023/03/09 04:21:12;;;;;;;63.43;59.70;;;;;;;-141.22;100.00;65034.22;4961454;28;20436;-48
2023/03/09 04:23:39;;;;;;;67.33;63.50;;;;;;;-141.22;100.00;65034.22;4960759;28;20475;-43
2023/03/09 04:26:08;;;;;;;66.00;62.00;;;;;;;-141.22;100.00;65034.22;4961215;28;20439;-42
2023/03/09 04:28:36;;;;;;;72.57;67.93;;;;;;;-141.22;100.00;65034.22;4961808;28;20515;-46
2023/03/09 04:31:04;;;;;;;72.50;68.13;;;;;;;-141.22;100.00;65034.22;4961118;28;20431;-48
2023/03/09 04:33:32;;;;;;;65.37;61.70;;;;;;;-141.22;100.00;65034.22;4959690;28;20552;-44
2023/03/09 04:35:59;;;;;;;62.83;59.17;;;;;;;-141.22;100.00;65034.22;4961547;28;20479;-43
2023/03/09 04:38:27;;;;;;;65.53;62.03;;;;;;;-141.22;100.00;65034.22;4960748;28;20450;-43
2023/03/09 04:40:55;;;;;;;63.80;60.07;;;;;;;-141.22;100.00;65034.22;4961276;28;20438;-44
2023/03/09 04:43:24;;;;;;;62.27;58.70;;;;;;;-141.22;100.00;65034.22;4960700;28;20460;-46
2023/03/09 04:45:51;;;;;;;63.33;59.60;;;;;;;-141.22;100.00;65034.22;4960276;28;20432;-44
2023/03/09 04:48:19;;;;;;;69.97;65.73;;;;;;;-141.22;100.00;65034.22;4960047;28;20424;-44
2023/03/09 04:50:47;;;;;;;62.90;59.30;;;;;;;-141.22;100.00;65034.22;4959824;28;20462;-44
2023/03/09 04:53:14;;;;;;;61.73;58.10;;;;;;;-141.22;100.00;65034.22;4959505;28;20471;-42
2023/03/09 04:55:42;;;;;;;58.53;54.63;;;;;;;-141.22;100.00;65034.22;4959961;28;20535;-45
2023/03/09 04:58:10;;;;;;;57.17;53.67;;;;;;;-141.22;100.00;65034.22;4960510;28;20444;-47
2023/03/09 05:00:38;;;;;;;55.13;51.70;;;;;;;-141.22;100.00;65034.22;4960491;28;20440;-43
2023/03/09 05:03:06;;;;;;;54.83;51.63;;;;;;;-141.22;100.00;65034.22;4959706;28;20468;-47
2023/03/09 05:05:34;;;;;;;59.07;55.77;;;;;;;-141.22;100.00;65034.22;4960262;28;20435;-45
2023/03/09 05:08:01;;;;;;;58.50;55.40;;;;;;;-141.22;100.00;65034.22;4960865;28;20440;-48
2023/03/09 05:10:29;;;;;;;58.77;55.60;;;;;;;-141.22;100.00;65034.22;4960577;28;20526;-45
2023/03/09 05:12:57;;;;;;;56.80;53.80;;;;;;;-141.22;100.00;65034.22;4959619;28;20459;-42
2023/03/09 05:15:24;;;;;;;56.63;53.20;;;;;;;-141.22;100.00;65034.22;4960139;28;20489;-43
2023/03/09 05:17:53;;;;;;;56.67;53.77;;;;;;;-141.22;100.00;65034.22;4959929;28;20428;-43
2023/03/09 05:20:23;;;;;;;55.60;52.30;;;;;;;-141.22;100.00;65034.22;4959925;28;20466;-45
2023/03/09 05:22:54;;;;;;;55.67;52.40;;;;;;;-141.22;100.00;65034.22;4959126;28;20458;-42
2023/03/09 05:25:22;;;;;;;60.57;56.70;;;;;;;-141.22;100.00;65034.22;4960658;28;20432;-44
2023/03/09 05:27:50;;;;;;;62.53;59.13;;;;;;;-141.22;100.00;65034.22;4959783;28;20439;-48
2023/03/09 05:30:19;;;;;;;61.50;57.90;;;;;;;-141.22;100.00;65034.22;4959794;28;20439;-45
2023/03/09 05:32:46;;;;;;;64.40;60.50;;;;;;;-141.22;100.00;65034.22;4959985;28;20542;-45
2023/03/09 05:35:15;;;;;;;62.13;58.60;;;;;;;-141.22;100.00;65034.22;4959867;28;20491;-44
2023/03/09 05:37:44;;;;;;;63.00;59.50;;;;;;;-141.22;100.00;65034.22;4958881;28;20447;-45
2023/03/09 05:40:13;;;;;;;59.77;56.17;;;;;;;-141.22;100.00;65034.22;4960252;28;20495;-42
2023/03/09 05:42:41;;;;;;;65.30;61.60;;;;;;;-141.22;100.00;65034.22;4959766;28;20470;-43
2023/03/09 05:45:09;;;;;;;61.33;57.57;;;;;;;-141.22;100.00;65034.22;4959961;28;20892;-43
2023/03/09 05:47:38;;;;;;;60.67;57.00;;;;;;;-141.22;100.00;65034.22;4960262;28;20445;-46
2023/03/09 05:50:07;;;;;;;61.57;58.00;;;;;;;-141.22;100.00;65034.22;4959954;28;20440;-46
2023/03/09 05:52:36;;;;;;;63.67;59.87;;;;;;;-141.22;100.00;65034.22;4959215;28;20436;-45
2023/03/09 05:55:04;;;;;;;61.80;57.70;;;;;;;-141.22;100.00;65034.22;4958840;28;20480;-47
2023/03/09 05:57:31;;;;;;;63.97;60.13;;;;;;;-141.22;100.00;65034.22;4960101;28;20974;-44
2023/03/09 05:59:59;;;;;;;60.33;56.43;;;;;;;-141.22;100.00;65034.22;4959305;28;20455;-42
2023/03/09 06:02:27;;;;;;;58.97;55.30;;;;;;;-141.22;100.00;65034.22;4959753;28;20436;-44
2023/03/09 06:04:55;;;;;;;58.37;54.13;;;;;;;-141.22;100.00;65034.22;4959446;28;20550;-46
2023/03/09 06:07:22;;;;;;;63.90;59.90;;;;;;;-141.22;100.00;65034.22;4958850;28;20436;-43
2023/03/09 06:09:51;;;;;;;60.57;56.67;;;;;;;-141.22;100.00;65034.22;4959695;28;20432;-46
2023/03/09 06:12:19;;;;;;;59.73;56.33;;;;;;;-141.22;100.00;65034.22;4959083;28;20432;-44
2023/03/09 06:14:48;;;;;;;60.17;56.60;;;;;;;-141.22;100.00;65034.22;4958716;28;20486;-44
2023/03/09 06:17:16;;;;;;;57.37;53.57;;;;;;;-141.22;100.00;65034.22;4958678;28;20482;-45
2023/03/09 06:19:44;;;;;;;59.83;56.23;;;;;;;-141.22;100.00;65034.22;4959054;28;20424;-44
2023/03/09 06:22:12;;;;;;;62.70;59.17;;;;;;;-141.22;100.00;65034.22;4959771;28;20957;-46
2023/03/09 06:24:40;;;;;;;61.47;57.77;;;;;;;-141.22;100.00;65034.22;4958947;28;20468;-49
2023/03/09 06:27:09;;;;;;;58.70;55.20;;;;;;;-141.22;100.00;65034.22;4959258;28;20436;-45
2023/03/09 06:29:37;;;;;;;59.47;55.70;;;;;;;-141.22;100.00;65034.22;4959486;28;20444;-44
2023/03/09 06:32:05;;;;;;;62.37;58.60;;;;;;;-141.22;100.00;65034.22;4959122;28;20495;-43
2023/03/09 06:34:32;;;;;;;62.07;57.87;;;;;;;-141.22;100.00;65034.22;4954107;28;20463;-45
2023/03/09 06:37:00;;;;;;;60.40;56.80;;;;;;;-141.22;100.00;65034.22;4952943;28;20534;-45
2023/03/09 06:39:28;;;;;;;63.47;59.90;;;;;;;-141.22;100.00;65034.22;4952702;28;20436;-45
2023/03/09 06:41:55;;;;;;;62.27;58.73;;;;;;;-141.22;100.00;65034.22;4952459;28;20451;-44
2023/03/09 06:44:24;;;;;;;64.63;60.77;;;;;;;-141.22;100.00;65034.22;4952208;28;20506;-44
2023/03/09 06:46:52;;;;;;;66.27;62.23;;;;;;;-141.22;100.00;65034.22;4952346;28;20470;-46
2023/03/09 06:49:20;;;;;;;66.20;62.13;;;;;;;-141.22;100.00;65034.22;4953633;28;20467;-43
2023/03/09 06:51:48;;;;;;;66.70;62.70;;;;;;;-141.22;100.00;65034.22;4957075;28;20459;-46
2023/03/09 06:54:16;;;;;;;67.60;63.60;;;;;;;-141.22;100.00;65034.22;4955898;28;20530;-44
2023/03/09 06:56:44;;;;;;;68.33;63.90;;;;;;;-141.22;100.00;65034.22;4956480;28;20542;-42
2023/03/09 06:59:11;;;;;;;72.60;68.47;;;;;;;-141.22;100.00;65034.22;4956744;28;20435;-49
2023/03/09 07:01:40;;;;;;;73.27;68.60;;;;;;;-141.22;100.00;65034.22;4956634;28;20435;-47
2023/03/09 07:04:08;;;;;;;72.90;68.53;;;;;;;-141.22;100.00;65034.22;4955257;28;20497;-43
2023/03/09 07:06:36;;;;;;;71.70;67.50;;;;;;;-141.22;100.00;65034.22;4956625;28;20431;-48
2023/03/09 07:09:04;;;;;;;69.23;65.37;;;;;;;-141.22;100.00;65034.22;4956379;28;20435;-45
2023/03/09 07:11:32;;;;;;;70.53;66.37;;;;;;;-141.22;100.00;65034.22;4956800;28;20450;-44
2023/03/09 07:14:00;;;;;;;70.67;66.77;;;;;;;-141.22;100.00;65034.22;4955807;28;20467;-42
2023/03/09 07:16:27;;;;;;;68.70;65.07;;;;;;;-141.22;100.00;65034.22;4956606;28;20497;-43
2023/03/09 07:18:57;;;;;;;70.50;66.90;;;;;;;-141.22;100.00;65034.22;4956668;28;20487;-42
2023/03/09 07:21:24;;;;;;;66.40;62.70;;;;;;;-141.22;100.00;65034.22;4956098;28;20456;-45
2023/03/09 07:23:52;;;;;;;66.50;62.77;;;;;;;-141.22;100.00;65034.22;4950001;28;20486;-43
2023/03/09 07:26:20;;;;;;;66.87;63.10;;;;;;;-141.22;100.00;65034.22;4956354;28;20439;-48
2023/03/09 07:28:48;;;;;;;69.47;65.77;;;;;;;-141.22;100.00;65034.22;4956277;28;20467;-43
2023/03/09 07:31:16;;;;;;;65.17;61.63;;;;;;;-141.22;100.00;65034.22;4956497;28;20439;-47
2023/03/09 07:33:43;;;;;;;72.13;68.33;;;;;;;-141.22;100.00;65034.22;4955780;28;20460;-42
2023/03/09 07:36:12;;;;;;;69.90;65.83;;;;;;;-141.22;100.00;65034.22;4953131;28;20479;-44
2023/03/09 07:38:40;;;;;;;69.17;65.43;;;;;;;-141.22;100.00;65034.22;4956217;28;20450;-44
2023/03/09 07:41:08;;;;;;;70.73;67.03;;;;;;;-141.22;100.00;65034.22;4955808;28;20432;-45
2023/03/09 07:43:37;;;;;;;65.70;62.20;;;;;;;-141.22;100.00;65034.22;4955699;28;20451;-44
2023/03/09 07:46:06;;;;;;;66.87;63.40;;;;;;;-141.22;100.00;65034.22;4955163;28;20462;-46
2023/03/09 07:48:36;;;;;;;64.77;61.03;;;;;;;-141.22;100.00;65034.22;4955830;28;20442;-43
2023/03/09 07:51:05;;;;;;;61.13;57.80;;;;;;;-141.22;100.00;65034.22;4955592;28;20946;-45
2023/03/09 07:53:36;;;;;;;62.50;59.17;;;;;;;-141.22;100.00;65034.22;4954832;28;20462;-48
2023/03/09 07:56:05;;;;;;;62.80;59.23;;;;;;;-141.22;100.00;65034.22;4954516;28;20467;-46
2023/03/09 07:58:35;;;;;;;62.43;58.93;;;;;;;-141.22;100.00;65034.22;4955261;28;20794;-42
2023/03/09 08:01:03;;;;;;;66.60;62.57;;;;;;;-141.22;100.00;65034.22;4954846;28;20432;-46
2023/03/09 08:03:31;;;;;;;62.73;59.33;;;;;;;-141.22;100.00;65034.22;4955037;28;20474;-48
2023/03/09 08:06:01;;;;;;;61.43;57.80;;;;;;;-141.22;100.00;65034.22;4949663;28;20992;-43
2023/03/09 08:08:30;;;;;;;63.60;59.87;;;;;;;-141.22;100.00;65034.22;4955545;28;20432;-44
2023/03/09 08:10:59;;;;;;;66.53;62.53;;;;;;;-141.22;100.00;65034.22;4955020;28;20443;-43
2023/03/09 08:13:29;;;;;;;63.23;59.30;;;;;;;-141.22;100.00;65034.22;4955363;28;20458;-47
2023/03/09 08:16:00;;;;;;;65.47;61.47;;;;;;;-141.22;100.00;65034.22;4954825;28;20475;-46
2023/03/09 08:18:28;;;;;;;65.50;62.10;;;;;;;-141.22;100.00;65034.22;4955158;28;20523;-46
2023/03/09 08:21:04;;;;;;;59.90;56.40;;;;;;;-141.22;100.00;65034.22;4955203;28;20432;-45
2023/03/09 08:23:33;;;;;;;59.47;55.70;;;;;;;-141.22;100.00;65034.22;4954938;28;20459;-43
2023/03/09 08:26:03;;;;;;;58.87;55.20;;;;;;;-141.22;100.00;65034.22;4954479;28;20558;-43
2023/03/09 08:28:30;;;;;;;58.77;55.37;;;;;;;-141.22;100.00;65034.22;4954884;28;20443;-44
2023/03/09 08:30:59;;;;;;;59.30;55.90;;;;;;;-141.22;100.00;65034.22;4954700;28;20424;-44
2023/03/09 08:33:26;;;;;;;56.77;52.97;;;;;;;-141.22;100.00;65034.22;4954984;28;20464;-44
2023/03/09 08:35:54;;;;;;;57.53;54.03;;;;;;;-141.22;100.00;65034.22;4952829;28;20471;-46
2023/03/09 08:38:22;;;;;;;57.10;53.80;;;;;;;-141.22;100.00;65034.22;4955207;28;20476;-46
2023/03/09 08:40:50;;;;;;;56.20;53.23;;;;;;;-141.22;100.00;65034.22;4954386;28;20435;-43
2023/03/09 08:43:19;;;;;;;58.40;55.03;;;;;;;-141.22;100.00;65034.22;4954473;28;20510;-45
2023/03/09 08:45:47;;;;;;;57.10;54.10;;;;;;;-141.22;100.00;65034.22;4953754;28;20471;-42
2023/03/09 08:48:15;;;;;;;59.17;55.97;;;;;;;-141.22;100.00;65034.22;4954791;28;21115;-43
2023/03/09 08:50:43;;;;;;;55.77;52.67;;;;;;;-141.22;100.00;65034.22;4954738;28;20470;-43
2023/03/09 08:53:11;;;;;;;55.20;52.03;;;;;;;-141.22;100.00;65034.22;4954452;28;20459;-45
2023/03/09 08:55:38;;;;;;;55.07;51.50;;;;;;;-141.22;100.00;65034.22;4953782;28;21001;-43
2023/03/09 08:58:07;;;;;;;53.53;50.43;;;;;;;-141.22;100.00;65034.22;4953839;28;20875;-45
2023/03/09 09:00:36;;;;;;;49.23;46.33;;;;;;;-141.22;100.00;65034.22;4954755;28;20436;-48
2023/03/09 09:03:04;;;;;;;48.57;45.87;;;;;;;-141.22;100.00;65034.22;4953841;28;20770;-44
2023/03/09 09:05:32;;;;;;;53.63;50.43;;;;;;;-141.22;100.00;65034.22;4953802;28;20499;-42
2023/03/09 09:08:00;;;;;;;52.73;49.57;;;;;;;-141.22;100.00;65034.22;4954287;28;20434;-44
2023/03/09 09:10:28;;;;;;;48.90;46.10;;;;;;;-141.22;100.00;65034.22;4954140;28;20447;-46
2023/03/09 09:13:02;;;;;;;46.47;43.97;;;;;;;-141.22;100.00;65034.22;4953026;28;20535;-46
2023/03/09 09:15:30;;;;;;;46.40;43.87;;;;;;;-141.22;100.00;65034.22;4954076;28;20470;-48
2023/03/09 09:17:59;;;;;;;44.57;42.10;;;;;;;-141.22;100.00;65034.22;4954544;28;20498;-45
2023/03/09 09:20:27;;;;;;;43.10;40.63;;;;;;;-141.22;100.00;65034.22;4954394;28;20855;-46
2023/03/09 09:22:54;;;;;;;40.63;38.27;;;;;;;-141.22;100.00;65034.22;4953762;28;20462;-50
2023/03/09 09:25:22;;;;;;;38.90;36.67;;;;;;;-141.22;100.00;65034.22;4953535;28;20468;-46
2023/03/09 09:27:51;;;;;;;35.40;33.40;;;;;;;-141.22;100.00;65034.22;4954419;28;20436;-44
2023/03/09 09:30:19;;;;;;;34.33;32.43;;;;;;;-141.22;100.00;65034.22;4954278;28;20523;-46
2023/03/09 09:32:48;;;;;;;31.60;29.77;;;;;;;-141.22;100.00;65034.22;4953409;28;20555;-43
2023/03/09 09:35:17;;;;;;;28.00;26.50;;;;;;;-141.22;100.00;65034.22;4953790;28;20460;-44
2023/03/09 09:37:45;;;;;;;29.70;27.47;;;;;;;-141.22;100.00;65034.22;4953294;28;20476;-45
2023/03/09 09:40:14;;;;;;;30.27;28.50;;;;;;;-141.22;100.00;65034.22;4953974;28;20798;-43
2023/03/09 09:42:44;;;;;;;30.57;28.77;;;;;;;-141.22;100.00;65034.22;4953635;28;20459;-49
2023/03/09 09:45:26;;;;;;;30.17;28.27;;;;;;;-141.22;100.00;65034.22;4953153;28;20456;-48
2023/03/09 09:47:56;;;;;;;26.87;25.33;;;;;;;-141.22;100.00;65034.22;4954236;28;20424;-44
2023/03/09 09:50:35;;;;;;;25.47;23.90;;;;;;;-141.22;100.00;65034.22;4953737;28;20447;-46
2023/03/09 09:53:09;;;;;;;23.53;22.10;;;;;;;-141.22;100.00;65034.22;4953730;28;20637;-44
2023/03/09 09:55:40;;;;;;;23.47;21.87;;;;;;;-141.22;100.00;65034.22;4953058;28;21017;-45
2023/03/09 09:58:19;;;;;;;20.03;18.83;;;;;;;-141.22;100.00;65034.22;4953624;28;20850;-50
2023/03/09 10:00:53;;;;;;;18.73;17.63;;;;;;;-141.22;100.00;65034.22;4953726;28;20486;-49
2023/03/09 10:03:24;;;;;;;17.67;16.67;;;;;;;-141.22;100.00;65034.22;4953352;28;20978;-49
2023/03/09 10:05:59;;;;;;;16.80;15.60;;;;;;;-141.22;100.00;65034.22;4950732;28;20474;-48
2023/03/09 10:08:34;;;;;;;16.07;15.13;;;;;;;-141.22;100.00;65034.22;4953774;28;20906;-50
2023/03/09 10:11:08;;;;;;;16.43;15.40;;;;;;;-141.22;100.00;65034.22;4953571;28;20435;-49
2023/03/09 10:13:41;;;;;;;16.57;15.57;;;;;;;-141.22;100.00;65034.22;4953349;28;20450;-47
2023/03/09 10:16:14;;;;;;;14.57;13.57;;;;;;;-141.22;100.00;65034.22;4952993;28;20522;-47
2023/03/09 10:18:48;;;;;;;13.13;12.20;;;;;;;-141.22;100.00;65034.22;4953545;28;20845;-49
2023/03/09 10:21:23;;;;;;;13.30;12.47;;;;;;;-141.22;100.00;65034.22;4953319;28;21002;-46
2023/03/09 10:23:56;;;;;;;14.33;13.47;;;;;;;-141.22;100.00;65034.22;4952564;28;20455;-43
2023/03/09 10:26:40;;;;;;;14.20;13.10;;;;;;;-141.22;100.00;65034.22;4953671;28;20420;-46
2023/03/09 10:29:19;;;;;;;13.23;12.13;;;;;;;-141.22;100.00;65034.22;4953443;28;20427;-48
2023/03/09 10:31:53;;;;;;;12.53;11.63;;;;;;;-141.22;100.00;65034.22;4953367;28;20516;-47
2023/03/09 10:34:24;;;;;;;12.47;11.63;;;;;;;-141.22;100.00;65034.22;4952943;28;20984;-44
2023/03/09 10:37:00;;;;;;;11.83;11.13;;;;;;;-141.22;100.00;65034.22;4953227;28;20438;-52
2023/03/09 10:39:33;;;;;;;12.37;11.40;;;;;;;-141.22;100.00;65034.22;4953079;28;20468;-46
2023/03/09 10:42:14;;;;;;;11.20;10.50;;;;;;;-141.22;100.00;65034.22;4952819;28;20436;-48
2023/03/09 10:44:47;;;;;;;11.33;10.73;;;;;;;-141.22;100.00;65034.22;4952817;28;20483;-50
2023/03/09 10:47:15;;;;;;;10.60;10.00;;;;;;;-141.22;100.00;65034.22;4953047;28;20439;-48
2023/03/09 10:49:42;;;;;;;11.33;10.60;;;;;;;-141.22;100.00;65034.22;4953016;28;20968;-46
2023/03/09 10:52:18;;;;;;;11.63;10.67;;;;;;;-141.22;100.00;65034.22;4953024;28;21037;-49
2023/03/09 10:54:46;;;;;;;11.47;10.63;;;;;;;-141.22;100.00;65034.22;4952342;28;20561;-45
2023/03/09 10:57:25;;;;;;;10.20;9.70;;;;;;;-141.22;100.00;65034.22;4953377;28;20814;-44
2023/03/09 10:59:58;;;;;;;11.60;10.73;;;;;;;-141.22;100.00;65034.22;4953225;29;20467;-47
2023/03/09 11:02:31;;;;;;;11.70;10.83;;;;;;;-141.22;100.00;65034.22;4952474;28;21013;-47
2023/03/09 11:04:59;;;;;;;10.67;9.63;;;;;;;-141.22;100.00;65034.22;4952649;28;20467;-46